sensor_id;sensor_type;location;lat;lon;timestamp;pressure;altitude;pressure_sealevel;temperature;humidity
67931;BME280;63902;52.000;5.954;2023-07-29T00:01:00;100329.38;;;16.21;100.00
67931;BME280;63902;52.000;5.954;2023-07-29T00:02:00;100334.72;;;16.21;100.00
67931;BME280;63902;52.000;5.954;2023-07-29T00:03:02;100333.03;;;16.20;100.00
67931;BME280;63902;52.000;5.954;2023-07-29T00:04:03;100332.06;;;16.21;100.00
67931;BME280;63902;52.000;5.954;2023-07-29T00:05:04;100333.03;;;16.20;100.00
67931;BME280;63902;52.000;5.954;2023-07-29T00:06:05;100335.69;;;16.20;100.00
67931;BME280;63902;52.000;5.954;2023-07-29T00:07:06;100336.69;;;16.19;100.00
67931;BME280;63902;52.000;5.954;2023-07-29T00:08:06;100337.75;;;16.17;100.00
67931;BME280;63902;52.000;5.954;2023-07-29T00:09:07;100330.81;;;16.14;100.00
67931;BME280;63902;52.000;5.954;2023-07-29T00:10:08;100328.34;;;16.11;100.00
67931;BME280;63902;52.000;5.954;2023-07-29T00:11:08;100330.03;;;16.12;100.00
67931;BME280;63902;52.000;5.954;2023-07-29T00:12:09;100332.72;;;16.12;100.00
67931;BME280;63902;52.000;5.954;2023-07-29T00:13:09;100321.16;;;16.11;100.00
67931;BME280;63902;52.000;5.954;2023-07-29T00:14:10;100323.94;;;16.10;100.00
67931;BME280;63902;52.000;5.954;2023-07-29T00:15:11;100328.44;;;16.09;100.00
67931;BME280;63902;52.000;5.954;2023-07-29T00:16:11;100319.56;;;16.09;100.00
67931;BME280;63902;52.000;5.954;2023-07-29T00:17:12;100319.56;;;16.09;100.00
67931;BME280;63902;52.000;5.954;2023-07-29T00:18:14;100316.13;;;16.07;100.00
67931;BME280;63902;52.000;5.954;2023-07-29T00:19:15;100321.50;;;16.07;100.00
67931;BME280;63902;52.000;5.954;2023-07-29T00:20:16;100321.50;;;16.07;100.00
67931;BME280;63902;52.000;5.954;2023-07-29T00:21:16;100318.09;;;16.05;100.00
67931;BME280;63902;52.000;5.954;2023-07-29T00:22:17;100326.22;;;16.03;100.00
67931;BME280;63902;52.000;5.954;2023-07-29T00:23:18;100318.41;;;16.00;100.00
67931;BME280;63902;52.000;5.954;2023-07-29T00:24:18;100319.25;;;16.01;100.00
67931;BME280;63902;52.000;5.954;2023-07-29T00:25:18;100328.97;;;16.02;100.00
67931;BME280;63902;52.000;5.954;2023-07-29T00:26:19;100325.59;;;16.00;100.00
67931;BME280;63902;52.000;5.954;2023-07-29T00:27:19;100328.25;;;16.00;100.00
67931;BME280;63902;52.000;5.954;2023-07-29T00:28:20;100326.53;;;15.99;100.00
67931;BME280;63902;52.000;5.954;2023-07-29T00:29:20;100315.97;;;15.97;100.00
67931;BME280;63902;52.000;5.954;2023-07-29T00:30:21;100322.38;;;15.95;100.00
67931;BME280;63902;52.000;5.954;2023-07-29T00:31:22;100311.69;;;15.95;100.00
67931;BME280;63902;52.000;5.954;2023-07-29T00:32:22;100309.00;;;15.95;100.00
67931;BME280;63902;52.000;5.954;2023-07-29T00:33:24;100309.00;;;15.95;100.00
67931;BME280;63902;52.000;5.954;2023-07-29T00:34:25;100307.19;;;15.95;100.00
67931;BME280;63902;52.000;5.954;2023-07-29T00:35:25;100301.97;;;15.94;100.00
67931;BME280;63902;52.000;5.954;2023-07-29T00:36:25;100299.28;;;15.94;100.00
67931;BME280;63902;52.000;5.954;2023-07-29T00:37:27;100299.47;;;15.91;100.00
67931;BME280;63902;52.000;5.954;2023-07-29T00:38:27;100284.53;;;15.88;100.00
67931;BME280;63902;52.000;5.954;2023-07-29T00:39:29;100294.56;;;15.84;100.00
67931;BME280;63902;52.000;5.954;2023-07-29T00:40:30;100284.94;;;15.82;100.00
67931;BME280;63902;52.000;5.954;2023-07-29T00:41:35;100285.94;;;15.81;100.00
67931;BME280;63902;52.000;5.954;2023-07-29T00:42:35;100281.56;;;15.80;100.00
67931;BME280;63902;52.000;5.954;2023-07-29T00:43:36;100291.19;;;15.82;100.00
67931;BME280;63902;52.000;5.954;2023-07-29T00:44:36;100285.84;;;15.82;100.00
67931;BME280;63902;52.000;5.954;2023-07-29T00:45:38;100284.00;;;15.83;100.00
67931;BME280;63902;52.000;5.954;2023-07-29T00:46:40;100280.66;;;15.79;100.00
67931;BME280;63902;52.000;5.954;2023-07-29T00:47:41;100293.31;;;15.77;100.00
67931;BME280;63902;52.000;5.954;2023-07-29T00:48:43;100294.25;;;15.76;100.00
67931;BME280;63902;52.000;5.954;2023-07-29T00:49:44;100281.25;;;15.72;100.00
67931;BME280;63902;52.000;5.954;2023-07-29T00:50:45;100283.06;;;15.71;100.00
67931;BME280;63902;52.000;5.954;2023-07-29T00:51:45;100283.06;;;15.71;100.00
67931;BME280;63902;52.000;5.954;2023-07-29T00:52:46;100281.25;;;15.72;100.00
67931;BME280;63902;52.000;5.954;2023-07-29T00:53:46;100279.50;;;15.71;100.00
67931;BME280;63902;52.000;5.954;2023-07-29T00:54:47;100282.19;;;15.71;100.00
67931;BME280;63902;52.000;5.954;2023-07-29T00:55:48;100285.63;;;15.73;100.00
67931;BME280;63902;52.000;5.954;2023-07-29T00:56:48;100281.13;;;15.73;100.00
67931;BME280;63902;52.000;5.954;2023-07-29T00:57:50;100283.78;;;15.73;100.00
67931;BME280;63902;52.000;5.954;2023-07-29T00:58:51;100281.34;;;15.70;100.00
67931;BME280;63902;52.000;5.954;2023-07-29T00:59:52;100284.97;;;15.69;100.00
67931;BME280;63902;52.000;5.954;2023-07-29T01:00:53;100289.63;;;15.65;100.00
67931;BME280;63902;52.000;5.954;2023-07-29T01:01:54;100292.22;;;15.67;100.00
67931;BME280;63902;52.000;5.954;2023-07-29T01:02:55;100298.63;;;15.64;100.00
67931;BME280;63902;52.000;5.954;2023-07-29T01:03:57;100298.00;;;15.61;100.00
67931;BME280;63902;52.000;5.954;2023-07-29T01:04:58;100284.31;;;15.53;100.00
67931;BME280;63902;52.000;5.954;2023-07-29T01:06:07;100293.19;;;15.53;100.00
67931;BME280;63902;52.000;5.954;2023-07-29T01:07:15;100300.13;;;15.56;100.00
67931;BME280;63902;52.000;5.954;2023-07-29T01:08:27;100304.63;;;15.55;100.00
67931;BME280;63902;52.000;5.954;2023-07-29T01:09:33;100302.06;;;15.54;100.00
67931;BME280;63902;52.000;5.954;2023-07-29T01:10:43;100307.31;;;15.55;100.00
67931;BME280;63902;52.000;5.954;2023-07-29T01:11:54;100304.72;;;15.54;100.00
67931;BME280;63902;52.000;5.954;2023-07-29T01:13:04;100309.97;;;15.55;100.00
67931;BME280;63902;52.000;5.954;2023-07-29T01:14:15;100314.25;;;15.58;100.00
67931;BME280;63902;52.000;5.954;2023-07-29T01:15:23;100309.75;;;15.58;100.00
67931;BME280;63902;52.000;5.954;2023-07-29T01:16:30;100316.72;;;15.61;100.00
67931;BME280;63902;52.000;5.954;2023-07-29T01:17:33;100318.31;;;15.63;100.00
67931;BME280;63902;52.000;5.954;2023-07-29T01:18:37;100315.53;;;15.65;100.00
67931;BME280;63902;52.000;5.954;2023-07-29T01:19:59;100319.94;;;15.66;100.00
67931;BME280;63902;52.000;5.954;2023-07-29T01:21:00;100318.19;;;15.65;100.00
67931;BME280;63902;52.000;5.954;2023-07-29T01:22:03;100313.56;;;15.69;100.00
67931;BME280;63902;52.000;5.954;2023-07-29T01:23:04;100309.91;;;15.70;100.00
67931;BME280;63902;52.000;5.954;2023-07-29T01:24:06;100307.13;;;15.71;100.00
67931;BME280;63902;52.000;5.954;2023-07-29T01:25:07;100309.59;;;15.74;100.00
67931;BME280;63902;52.000;5.954;2023-07-29T01:26:07;100299.75;;;15.75;100.00
67931;BME280;63902;52.000;5.954;2023-07-29T01:27:08;100292.66;;;15.74;100.00
67931;BME280;63902;52.000;5.954;2023-07-29T01:28:08;100308.50;;;15.77;100.00
67931;BME280;63902;52.000;5.954;2023-07-29T01:29:09;100292.56;;;15.75;100.00
67931;BME280;63902;52.000;5.954;2023-07-29T01:30:10;100296.94;;;15.76;100.00
67931;BME280;63902;52.000;5.954;2023-07-29T01:31:13;100286.25;;;15.76;100.00
67931;BME280;63902;52.000;5.954;2023-07-29T01:32:32;100287.22;;;15.75;100.00
67931;BME280;63902;52.000;5.954;2023-07-29T01:33:39;100282.09;;;15.72;100.00
67931;BME280;63902;52.000;5.954;2023-07-29T01:34:45;100272.16;;;15.74;100.00
67931;BME280;63902;52.000;5.954;2023-07-29T01:35:49;100286.47;;;15.73;100.00
67931;BME280;63902;52.000;5.954;2023-07-29T01:36:51;100276.00;;;15.70;100.00
67931;BME280;63902;52.000;5.954;2023-07-29T01:37:55;100278.78;;;15.69;100.00
67931;BME280;63902;52.000;5.954;2023-07-29T01:39:00;100279.63;;;15.69;100.00
67931;BME280;63902;52.000;5.954;2023-07-29T01:40:05;100275.13;;;15.70;100.00
67931;BME280;63902;52.000;5.954;2023-07-29T01:41:08;100268.94;;;15.69;100.00
67931;BME280;63902;52.000;5.954;2023-07-29T01:42:09;100265.28;;;15.70;100.00
67931;BME280;63902;52.000;5.954;2023-07-29T01:43:10;100276.00;;;15.70;100.00
67931;BME280;63902;52.000;5.954;2023-07-29T01:44:11;100276.97;;;15.69;100.00
67931;BME280;63902;52.000;5.954;2023-07-29T01:45:12;100277.91;;;15.68;100.00
67931;BME280;63902;52.000;5.954;2023-07-29T01:46:14;100285.84;;;15.70;100.00
67931;BME280;63902;52.000;5.954;2023-07-29T01:47:14;100276.97;;;15.69;100.00
67931;BME280;63902;52.000;5.954;2023-07-29T01:48:16;100282.19;;;15.71;100.00
67931;BME280;63902;52.000;5.954;2023-07-29T01:49:16;100281.34;;;15.70;100.00
67931;BME280;63902;52.000;5.954;2023-07-29T01:50:17;100277.91;;;15.68;100.00
67931;BME280;63902;52.000;5.954;2023-07-29T01:51:17;100277.72;;;15.71;100.00
67931;BME280;63902;52.000;5.954;2023-07-29T01:52:18;100280.41;;;15.71;100.00
67931;BME280;63902;52.000;5.954;2023-07-29T01:53:18;100272.38;;;15.71;100.00
67931;BME280;63902;52.000;5.954;2023-07-29T01:54:19;100273.22;;;15.72;100.00
67931;BME280;63902;52.000;5.954;2023-07-29T01:55:21;100282.84;;;15.74;100.00
67931;BME280;63902;52.000;5.954;2023-07-29T01:56:21;100276.53;;;15.75;100.00
67931;BME280;63902;52.000;5.954;2023-07-29T01:57:24;100275.53;;;15.76;100.00
67931;BME280;63902;52.000;5.954;2023-07-29T01:58:24;100276.31;;;15.78;100.00
67931;BME280;63902;52.000;5.954;2023-07-29T01:59:25;100278.13;;;15.78;100.00
67931;BME280;63902;52.000;5.954;2023-07-29T02:00:26;100267.44;;;15.78;100.00
67931;BME280;63902;52.000;5.954;2023-07-29T02:01:26;100282.41;;;15.80;100.00
67931;BME280;63902;52.000;5.954;2023-07-29T02:02:27;100273.41;;;15.81;100.00
67931;BME280;63902;52.000;5.954;2023-07-29T02:03:27;100267.22;;;15.81;100.00
67931;BME280;63902;52.000;5.954;2023-07-29T02:04:28;100272.47;;;15.82;100.00
67931;BME280;63902;52.000;5.954;2023-07-29T02:05:28;100264.44;;;15.82;100.00
67931;BME280;63902;52.000;5.954;2023-07-29T02:06:28;100273.19;;;15.84;100.00
67931;BME280;63902;52.000;5.954;2023-07-29T02:07:29;100273.19;;;15.84;100.00
67931;BME280;63902;52.000;5.954;2023-07-29T02:08:30;100272.34;;;15.84;100.00
67931;BME280;63902;52.000;5.954;2023-07-29T02:09:31;100268.81;;;15.83;100.00
67931;BME280;63902;52.000;5.954;2023-07-29T02:10:33;100275.00;;;15.84;100.00
67931;BME280;63902;52.000;5.954;2023-07-29T02:11:33;100267.84;;;15.84;100.00
67931;BME280;63902;52.000;5.954;2023-07-29T02:12:33;100269.56;;;15.85;100.00
67931;BME280;63902;52.000;5.954;2023-07-29T02:13:34;100262.47;;;15.84;100.00
67931;BME280;63902;52.000;5.954;2023-07-29T02:14:34;100261.84;;;15.81;100.00
67931;BME280;63902;52.000;5.954;2023-07-29T02:15:35;100264.22;;;15.85;100.00
67931;BME280;63902;52.000;5.954;2023-07-29T02:16:36;100272.09;;;15.87;100.00
67931;BME280;63902;52.000;5.954;2023-07-29T02:17:36;100272.97;;;15.87;100.00
67931;BME280;63902;52.000;5.954;2023-07-29T02:18:37;100273.84;;;15.88;100.00
67931;BME280;63902;52.000;5.954;2023-07-29T02:19:37;100268.34;;;15.89;100.00
67931;BME280;63902;52.000;5.954;2023-07-29T02:20:38;100272.72;;;15.91;100.00
67931;BME280;63902;52.000;5.954;2023-07-29T02:21:38;100266.31;;;15.93;100.00
67931;BME280;63902;52.000;5.954;2023-07-29T02:22:39;100259.34;;;15.91;100.00
67931;BME280;63902;52.000;5.954;2023-07-29T02:23:39;100264.50;;;15.94;100.00
67931;BME280;63902;52.000;5.954;2023-07-29T02:24:40;100257.34;;;15.94;100.00
67931;BME280;63902;52.000;5.954;2023-07-29T02:25:42;100262.56;;;15.96;100.00
67931;BME280;63902;52.000;5.954;2023-07-29T02:26:42;100262.69;;;15.94;100.00
67931;BME280;63902;52.000;5.954;2023-07-29T02:27:43;100257.22;;;15.96;100.00
67931;BME280;63902;52.000;5.954;2023-07-29T02:28:43;100267.06;;;15.95;100.00
67931;BME280;63902;52.000;5.954;2023-07-29T02:29:44;100264.16;;;15.98;100.00
67931;BME280;63902;52.000;5.954;2023-07-29T02:30:44;100265.00;;;15.99;100.00
67931;BME280;63902;52.000;5.954;2023-07-29T02:31:45;100265.00;;;15.99;100.00
67931;BME280;63902;52.000;5.954;2023-07-29T02:32:45;100259.56;;;16.00;100.00
67931;BME280;63902;52.000;5.954;2023-07-29T02:33:46;100263.09;;;16.01;100.00
67931;BME280;63902;52.000;5.954;2023-07-29T02:34:46;100263.94;;;16.01;100.00
67931;BME280;63902;52.000;5.954;2023-07-29T02:35:47;100264.06;;;16.00;100.00
67931;BME280;63902;52.000;5.954;2023-07-29T02:36:47;100269.19;;;16.03;100.00
67931;BME280;63902;52.000;5.954;2023-07-29T02:37:48;100267.38;;;16.03;100.00
67931;BME280;63902;52.000;5.954;2023-07-29T02:38:48;100266.50;;;16.03;100.00
67931;BME280;63902;52.000;5.954;2023-07-29T02:39:49;100262.63;;;16.07;100.00
67931;BME280;63902;52.000;5.954;2023-07-29T02:40:51;100268.00;;;16.07;100.00
67931;BME280;63902;52.000;5.954;2023-07-29T02:41:51;100269.72;;;16.08;100.00
67931;BME280;63902;52.000;5.954;2023-07-29T02:42:52;100271.50;;;16.07;100.00
67931;BME280;63902;52.000;5.954;2023-07-29T02:43:52;100274.09;;;16.09;100.00
67931;BME280;63902;52.000;5.954;2023-07-29T02:44:53;100268.00;;;16.07;100.00
67931;BME280;63902;52.000;5.954;2023-07-29T02:45:53;100274.84;;;16.11;100.00
67931;BME280;63902;52.000;5.954;2023-07-29T02:46:54;100269.50;;;16.11;100.00
67931;BME280;63902;52.000;5.954;2023-07-29T02:47:54;100264.13;;;16.11;100.00
67931;BME280;63902;52.000;5.954;2023-07-29T02:48:55;100273.88;;;16.12;100.00
67931;BME280;63902;52.000;5.954;2023-07-29T02:49:55;100271.19;;;16.12;100.00
67931;BME280;63902;52.000;5.954;2023-07-29T02:50:56;100272.03;;;16.13;100.00
67931;BME280;63902;52.000;5.954;2023-07-29T02:51:56;100272.16;;;16.11;100.00
67931;BME280;63902;52.000;5.954;2023-07-29T02:52:57;100267.53;;;16.13;100.00
67931;BME280;63902;52.000;5.954;2023-07-29T02:53:57;100264.84;;;16.13;100.00
67931;BME280;63902;52.000;5.954;2023-07-29T02:54:58;100255.97;;;16.13;100.00
67931;BME280;63902;52.000;5.954;2023-07-29T02:56:00;100261.09;;;16.16;100.00
67931;BME280;63902;52.000;5.954;2023-07-29T02:57:00;100258.09;;;16.20;100.00
67931;BME280;63902;52.000;5.954;2023-07-29T02:58:01;100252.53;;;16.23;100.00
67931;BME280;63902;52.000;5.954;2023-07-29T02:59:01;100261.06;;;16.28;100.00
67931;BME280;63902;52.000;5.954;2023-07-29T03:00:02;100254.50;;;16.32;100.00
67931;BME280;63902;52.000;5.954;2023-07-29T03:01:04;100249.91;;;16.34;100.00
67931;BME280;63902;52.000;5.954;2023-07-29T03:02:05;100252.13;;;16.41;100.00
67931;BME280;63902;52.000;5.954;2023-07-29T03:03:05;100253.72;;;16.43;100.00
67931;BME280;63902;52.000;5.954;2023-07-29T03:04:06;100252.78;;;16.44;100.00
67931;BME280;63902;52.000;5.954;2023-07-29T03:05:07;100253.63;;;16.45;100.00
67931;BME280;63902;52.000;5.954;2023-07-29T03:06:09;100252.63;;;16.46;100.00
67931;BME280;63902;52.000;5.954;2023-07-29T03:07:10;100255.31;;;16.46;100.00
67931;BME280;63902;52.000;5.954;2023-07-29T03:08:10;100248.25;;;16.45;100.00
67931;BME280;63902;52.000;5.954;2023-07-29T03:09:11;100245.34;;;16.48;100.00
67931;BME280;63902;52.000;5.954;2023-07-29T03:10:12;100250.56;;;16.49;100.00
67931;BME280;63902;52.000;5.954;2023-07-29T03:11:14;100250.56;;;16.49;100.00
67931;BME280;63902;52.000;5.954;2023-07-29T03:12:15;100245.34;;;16.48;100.00
67931;BME280;63902;52.000;5.954;2023-07-29T03:13:15;100245.13;;;16.51;100.00
67931;BME280;63902;52.000;5.954;2023-07-29T03:14:16;100242.34;;;16.52;100.00
67931;BME280;63902;52.000;5.954;2023-07-29T03:15:17;100247.69;;;16.52;100.00
67931;BME280;63902;52.000;5.954;2023-07-29T03:16:18;100252.16;;;16.52;100.00
67931;BME280;63902;52.000;5.954;2023-07-29T03:17:18;100244.38;;;16.49;100.00
67931;BME280;63902;52.000;5.954;2023-07-29T03:18:19;100253.16;;;16.51;100.00
67931;BME280;63902;52.000;5.954;2023-07-29T03:19:19;100252.06;;;16.53;100.00
67931;BME280;63902;52.000;5.954;2023-07-29T03:20:20;100252.16;;;16.52;100.00
67931;BME280;63902;52.000;5.954;2023-07-29T03:21:20;100254.75;;;16.53;100.00
67931;BME280;63902;52.000;5.954;2023-07-29T03:22:21;100252.91;;;16.54;100.00
67931;BME280;63902;52.000;5.954;2023-07-29T03:23:21;100251.22;;;16.53;100.00
67931;BME280;63902;52.000;5.954;2023-07-29T03:24:22;100255.59;;;16.54;100.00
67931;BME280;63902;52.000;5.954;2023-07-29T03:25:22;100248.53;;;16.53;100.00
67931;BME280;63902;52.000;5.954;2023-07-29T03:26:24;100250.25;;;16.54;100.00
67931;BME280;63902;52.000;5.954;2023-07-29T03:27:25;100248.53;;;16.53;100.00
67931;BME280;63902;52.000;5.954;2023-07-29T03:28:26;100247.69;;;16.52;100.00
67931;BME280;63902;52.000;5.954;2023-07-29T03:29:27;100247.03;;;16.49;100.00
67931;BME280;63902;52.000;5.954;2023-07-29T03:30:28;100253.16;;;16.51;100.00
67931;BME280;63902;52.000;5.954;2023-07-29T03:31:28;100248.78;;;16.50;100.00
67931;BME280;63902;52.000;5.954;2023-07-29T03:32:29;100247.28;;;16.46;100.00
67931;BME280;63902;52.000;5.954;2023-07-29T03:33:29;100252.41;;;16.49;100.00
67931;BME280;63902;52.000;5.954;2023-07-29T03:34:30;100250.47;;;16.51;100.00
67931;BME280;63902;52.000;5.954;2023-07-29T03:35:30;100252.31;;;16.50;100.00
67931;BME280;63902;52.000;5.954;2023-07-29T03:36:31;100248.78;;;16.50;100.00
67931;BME280;63902;52.000;5.954;2023-07-29T03:37:31;100246.19;;;16.48;100.00
67931;BME280;63902;52.000;5.954;2023-07-29T03:38:32;100244.28;;;16.50;100.00
67931;BME280;63902;52.000;5.954;2023-07-29T03:39:33;100247.03;;;16.49;100.00
67931;BME280;63902;52.000;5.954;2023-07-29T03:40:34;100248.78;;;16.50;100.00
67931;BME280;63902;52.000;5.954;2023-07-29T03:41:36;100249.72;;;16.49;100.00
67931;BME280;63902;52.000;5.954;2023-07-29T03:42:37;100242.69;;;16.48;100.00
67931;BME280;63902;52.000;5.954;2023-07-29T03:43:37;100242.69;;;16.48;100.00
67931;BME280;63902;52.000;5.954;2023-07-29T03:44:38;100245.59;;;16.45;100.00
67931;BME280;63902;52.000;5.954;2023-07-29T03:45:39;100248.03;;;16.48;100.00
67931;BME280;63902;52.000;5.954;2023-07-29T03:46:40;100246.34;;;16.47;100.00
67931;BME280;63902;52.000;5.954;2023-07-29T03:47:41;100240.34;;;16.43;100.00
67931;BME280;63902;52.000;5.954;2023-07-29T03:48:41;100244.59;;;16.46;100.00
67931;BME280;63902;52.000;5.954;2023-07-29T03:49:42;100241.94;;;16.46;100.00
67931;BME280;63902;52.000;5.954;2023-07-29T03:50:42;100247.41;;;16.44;100.00
67931;BME280;63902;52.000;5.954;2023-07-29T03:51:43;100232.44;;;16.42;100.00
67931;BME280;63902;52.000;5.954;2023-07-29T03:52:44;100222.91;;;16.38;100.00
67931;BME280;63902;52.000;5.954;2023-07-29T03:53:44;100238.72;;;16.41;100.00
67931;BME280;63902;52.000;5.954;2023-07-29T03:54:45;100235.34;;;16.39;100.00
67931;BME280;63902;52.000;5.954;2023-07-29T03:55:45;100240.69;;;16.39;100.00
67931;BME280;63902;52.000;5.954;2023-07-29T03:56:47;100236.53;;;16.34;100.00
67931;BME280;63902;52.000;5.954;2023-07-29T03:57:47;100245.16;;;16.38;100.00
67931;BME280;63902;52.000;5.954;2023-07-29T03:58:48;100241.78;;;16.36;100.00
67931;BME280;63902;52.000;5.954;2023-07-29T03:59:49;100243.47;;;16.37;100.00
67931;BME280;63902;52.000;5.954;2023-07-29T04:00:49;100245.31;;;16.37;100.00
67931;BME280;63902;52.000;5.954;2023-07-29T04:01:50;100242.63;;;16.37;100.00
67931;BME280;63902;52.000;5.954;2023-07-29T04:02:50;100244.56;;;16.34;100.00
67931;BME280;63902;52.000;5.954;2023-07-29T04:03:51;100256.09;;;16.35;100.00
67931;BME280;63902;52.000;5.954;2023-07-29T04:04:51;100250.88;;;16.33;100.00
67931;BME280;63902;52.000;5.954;2023-07-29T04:05:52;100251.84;;;16.32;100.00
67931;BME280;63902;52.000;5.954;2023-07-29T04:06:52;100251.13;;;16.30;100.00
67931;BME280;63902;52.000;5.954;2023-07-29T04:07:54;100255.50;;;16.31;100.00
67931;BME280;63902;52.000;5.954;2023-07-29T04:08:55;100251.97;;;16.31;100.00
67931;BME280;63902;52.000;5.954;2023-07-29T04:09:55;100247.47;;;16.31;100.00
67931;BME280;63902;52.000;5.954;2023-07-29T04:10:56;100250.97;;;16.32;100.00
67931;BME280;63902;52.000;5.954;2023-07-29T04:11:58;100250.13;;;16.31;100.00
67931;BME280;63902;52.000;5.954;2023-07-29T04:12:58;100243.94;;;16.31;100.00
67931;BME280;63902;52.000;5.954;2023-07-29T04:13:59;100236.00;;;16.29;100.00
67931;BME280;63902;52.000;5.954;2023-07-29T04:14:59;100238.81;;;16.28;100.00
67931;BME280;63902;52.000;5.954;2023-07-29T04:16:00;100237.22;;;16.25;100.00
67931;BME280;63902;52.000;5.954;2023-07-29T04:17:00;100244.16;;;16.28;100.00
67931;BME280;63902;52.000;5.954;2023-07-29T04:18:01;100259.38;;;16.27;100.00
67931;BME280;63902;52.000;5.954;2023-07-29T04:19:01;100248.78;;;16.26;100.00
67931;BME280;63902;52.000;5.954;2023-07-29T04:20:02;100248.88;;;16.24;100.00
67931;BME280;63902;52.000;5.954;2023-07-29T04:21:03;100242.81;;;16.22;100.00
67931;BME280;63902;52.000;5.954;2023-07-29T04:22:04;100251.53;;;16.24;100.00
67931;BME280;63902;52.000;5.954;2023-07-29T04:23:04;100247.91;;;16.25;100.00
67931;BME280;63902;52.000;5.954;2023-07-29T04:24:05;100241.94;;;16.22;100.00
67931;BME280;63902;52.000;5.954;2023-07-29T04:25:06;100239.47;;;16.19;100.00
67931;BME280;63902;52.000;5.954;2023-07-29T04:26:07;100247.16;;;16.23;100.00
67931;BME280;63902;52.000;5.954;2023-07-29T04:27:09;100237.44;;;16.22;100.00
67931;BME280;63902;52.000;5.954;2023-07-29T04:28:09;100241.19;;;16.20;100.00
67931;BME280;63902;52.000;5.954;2023-07-29T04:29:10;100242.06;;;16.20;100.00
67931;BME280;63902;52.000;5.954;2023-07-29T04:30:11;100248.25;;;16.21;100.00
67931;BME280;63902;52.000;5.954;2023-07-29T04:31:11;100243.97;;;16.18;100.00
67931;BME280;63902;52.000;5.954;2023-07-29T04:32:12;100252.13;;;16.17;100.00
67931;BME280;63902;52.000;5.954;2023-07-29T04:33:12;100236.06;;;16.17;100.00
67931;BME280;63902;52.000;5.954;2023-07-29T04:34:12;100237.16;;;16.14;100.00
67931;BME280;63902;52.000;5.954;2023-07-29T04:35:13;100231.81;;;16.14;100.00
67931;BME280;63902;52.000;5.954;2023-07-29T04:36:14;100234.34;;;16.16;100.00
67931;BME280;63902;52.000;5.954;2023-07-29T04:37:14;100230.72;;;16.17;100.00
67931;BME280;63902;52.000;5.954;2023-07-29T04:38:15;100221.94;;;16.15;100.00
67931;BME280;63902;52.000;5.954;2023-07-29T04:39:15;100227.91;;;16.18;100.00
67931;BME280;63902;52.000;5.954;2023-07-29T04:40:16;100219.19;;;16.16;100.00
67931;BME280;63902;52.000;5.954;2023-07-29T04:41:16;100219.38;;;16.13;100.00
67931;BME280;63902;52.000;5.954;2023-07-29T04:42:18;100217.56;;;16.14;100.00
67931;BME280;63902;52.000;5.954;2023-07-29T04:43:19;100210.63;;;16.11;100.00
67931;BME280;63902;52.000;5.954;2023-07-29T04:44:19;100218.75;;;16.09;100.00
67931;BME280;63902;52.000;5.954;2023-07-29T04:45:20;100216.22;;;16.08;100.00
67931;BME280;63902;52.000;5.954;2023-07-29T04:46:20;100221.56;;;16.08;100.00
67931;BME280;63902;52.000;5.954;2023-07-29T04:47:21;100213.53;;;16.08;100.00
67931;BME280;63902;52.000;5.954;2023-07-29T04:48:21;100221.56;;;16.08;100.00
67931;BME280;63902;52.000;5.954;2023-07-29T04:49:22;100218.88;;;16.08;100.00
67931;BME280;63902;52.000;5.954;2023-07-29T04:50:22;100216.06;;;16.09;100.00
67931;BME280;63902;52.000;5.954;2023-07-29T04:51:23;100220.59;;;16.09;100.00
67931;BME280;63902;52.000;5.954;2023-07-29T04:52:24;100224.09;;;16.09;100.00
67931;BME280;63902;52.000;5.954;2023-07-29T04:53:24;100228.59;;;16.09;100.00
67931;BME280;63902;52.000;5.954;2023-07-29T04:54:25;100232.97;;;16.10;100.00
67931;BME280;63902;52.000;5.954;2023-07-29T04:55:25;100238.34;;;16.10;100.00
67931;BME280;63902;52.000;5.954;2023-07-29T04:56:26;100242.09;;;16.07;100.00
67931;BME280;63902;52.000;5.954;2023-07-29T04:57:29;100250.75;;;16.11;100.00
67931;BME280;63902;52.000;5.954;2023-07-29T04:58:30;100256.97;;;16.11;100.00
67931;BME280;63902;52.000;5.954;2023-07-29T04:59:30;100260.47;;;16.12;100.00
67931;BME280;63902;52.000;5.954;2023-07-29T05:00:31;100259.63;;;16.11;100.00
67931;BME280;63902;52.000;5.954;2023-07-29T05:01:31;100261.47;;;16.11;100.00
67931;BME280;63902;52.000;5.954;2023-07-29T05:02:32;100274.84;;;16.11;100.00
67931;BME280;63902;52.000;5.954;2023-07-29T05:03:32;100275.78;;;16.10;100.00
67931;BME280;63902;52.000;5.954;2023-07-29T05:04:33;100276.75;;;16.09;100.00
67931;BME280;63902;52.000;5.954;2023-07-29T05:05:33;100283.09;;;16.08;100.00
67931;BME280;63902;52.000;5.954;2023-07-29T05:06:34;100287.47;;;16.09;100.00
67931;BME280;63902;52.000;5.954;2023-07-29T05:07:35;100282.34;;;16.06;100.00
67931;BME280;63902;52.000;5.954;2023-07-29T05:08:35;100285.63;;;16.09;100.00
67931;BME280;63902;52.000;5.954;2023-07-29T05:09:35;100285.63;;;16.09;100.00
67931;BME280;63902;52.000;5.954;2023-07-29T05:10:36;100285.53;;;16.11;100.00
67931;BME280;63902;52.000;5.954;2023-07-29T05:11:37;100284.69;;;16.10;100.00
67931;BME280;63902;52.000;5.954;2023-07-29T05:12:39;100279.44;;;16.09;100.00
67931;BME280;63902;52.000;5.954;2023-07-29T05:13:39;100276.53;;;16.12;100.00
67931;BME280;63902;52.000;5.954;2023-07-29T05:14:40;100270.22;;;16.13;100.00
67931;BME280;63902;52.000;5.954;2023-07-29T05:15:40;100273.63;;;16.15;100.00
67931;BME280;63902;52.000;5.954;2023-07-29T05:16:41;100270.97;;;16.15;100.00